sensor_id;sensor_type;location;lat;lon;timestamp;pressure;altitude;pressure_sealevel;temperature;humidity
46291;BME280;32023;44.444;26.006;2023-04-01T00:02:07;99455.59;;;9.68;70.52
46291;BME280;32023;44.444;26.006;2023-04-01T00:04:33;99442.94;;;9.67;70.36
46291;BME280;32023;44.444;26.006;2023-04-01T00:06:59;99440.75;;;9.70;70.24
46291;BME280;32023;44.444;26.006;2023-04-01T00:09:27;99431.69;;;9.74;70.13
46291;BME280;32023;44.444;26.006;2023-04-01T00:11:54;99427.00;;;9.75;69.98
46291;BME280;32023;44.444;26.006;2023-04-01T00:14:20;99430.84;;;9.74;69.75
46291;BME280;32023;44.444;26.006;2023-04-01T00:16:46;99422.88;;;9.72;69.83
46291;BME280;32023;44.444;26.006;2023-04-01T00:19:13;99424.53;;;9.73;70.07
46291;BME280;32023;44.444;26.006;2023-04-01T00:21:45;99416.00;;;9.75;69.57
46291;BME280;32023;44.444;26.006;2023-04-01T00:24:16;99426.47;;;9.78;69.44
46291;BME280;32023;44.444;26.006;2023-04-01T00:26:43;99423.72;;;9.78;69.37
46291;BME280;32023;44.444;26.006;2023-04-01T00:29:13;99425.63;;;9.77;69.83
46291;BME280;32023;44.444;26.006;2023-04-01T00:31:46;99418.75;;;9.80;69.61
46291;BME280;32023;44.444;26.006;2023-04-01T00:34:14;99407.75;;;9.80;69.42
46291;BME280;32023;44.444;26.006;2023-04-01T00:36:52;99414.06;;;9.80;69.43
46291;BME280;32023;44.444;26.006;2023-04-01T00:39:20;99414.06;;;9.80;69.28
46291;BME280;32023;44.444;26.006;2023-04-01T00:41:47;99417.91;;;9.79;69.57
46291;BME280;32023;44.444;26.006;2023-04-01T00:44:48;99414.63;;;9.77;69.47
46291;BME280;32023;44.444;26.006;2023-04-01T00:47:25;99404.47;;;9.78;69.65
46291;BME280;32023;44.444;26.006;2023-04-01T00:49:54;99404.16;;;9.79;69.88
46291;BME280;32023;44.444;26.006;2023-04-01T00:52:25;99404.72;;;9.81;69.78
46291;BME280;32023;44.444;26.006;2023-04-01T00:55:13;99401.16;;;9.81;69.69
46291;BME280;32023;44.444;26.006;2023-04-01T00:57:43;99390.16;;;9.81;69.81
46291;BME280;32023;44.444;26.006;2023-04-01T01:00:12;99384.34;;;9.82;69.41
46291;BME280;32023;44.444;26.006;2023-04-01T01:02:43;99385.47;;;9.81;69.22
46291;BME280;32023;44.444;26.006;2023-04-01T01:05:13;99388.50;;;9.80;69.27
46291;BME280;32023;44.444;26.006;2023-04-01T01:08:47;99383.81;;;9.75;69.18
46291;BME280;32023;44.444;26.006;2023-04-01T01:10:53;99378.91;;;9.72;69.58
46291;BME280;32023;44.444;26.006;2023-04-01T01:13:27;99378.06;;;9.77;69.44
46291;BME280;32023;44.444;26.006;2023-04-01T01:16:15;99379.69;;;9.83;69.46
46291;BME280;32023;44.444;26.006;2023-04-01T01:24:17;99363.13;;;9.98;68.90
46291;BME280;32023;44.444;26.006;2023-04-01T01:29:57;99358.72;;;10.07;68.25
46291;BME280;32023;44.444;26.006;2023-04-01T01:32:55;99357.31;;;10.09;68.44
46291;BME280;32023;44.444;26.006;2023-04-01T01:35:33;99351.00;;;10.14;67.90
46291;BME280;32023;44.444;26.006;2023-04-01T01:38:14;99354.84;;;10.18;68.50
46291;BME280;32023;44.444;26.006;2023-04-01T01:40:44;99349.59;;;10.22;68.13
46291;BME280;32023;44.444;26.006;2023-04-01T01:43:14;99341.88;;;10.24;67.97
46291;BME280;32023;44.444;26.006;2023-04-01T01:45:55;99344.91;;;10.27;68.23
46291;BME280;32023;44.444;26.006;2023-04-01T01:48:24;99353.69;;;10.29;67.92
46291;BME280;32023;44.444;26.006;2023-04-01T01:50:59;99350.94;;;10.29;68.38
46291;BME280;32023;44.444;26.006;2023-04-01T01:53:29;99355.06;;;10.32;68.47
46291;BME280;32023;44.444;26.006;2023-04-01T01:56:06;99377.06;;;10.32;68.93
46291;BME280;32023;44.444;26.006;2023-04-01T01:58:44;99361.69;;;10.31;68.35
46291;BME280;32023;44.444;26.006;2023-04-01T02:01:21;99352.34;;;10.27;69.08
46291;BME280;32023;44.444;26.006;2023-04-01T02:03:50;99352.09;;;10.23;69.26
46291;BME280;32023;44.444;26.006;2023-04-01T02:06:43;99340.84;;;10.20;68.55
46291;BME280;32023;44.444;26.006;2023-04-01T02:09:36;99342.72;;;10.14;68.94
46291;BME280;32023;44.444;26.006;2023-04-01T02:12:08;99344.97;;;10.12;68.92
46291;BME280;32023;44.444;26.006;2023-04-01T02:17:24;99340.28;;;10.07;68.95
46291;BME280;32023;44.444;26.006;2023-04-01T02:20:00;99337.56;;;10.02;68.75
46291;BME280;32023;44.444;26.006;2023-04-01T02:22:36;99334.53;;;9.99;69.08
46291;BME280;32023;44.444;26.006;2023-04-01T02:25:11;99322.19;;;9.96;69.36
46291;BME280;32023;44.444;26.006;2023-04-01T02:27:39;99316.13;;;9.94;68.88
46291;BME280;32023;44.444;26.006;2023-04-01T02:30:07;99312.59;;;9.89;69.03
46291;BME280;32023;44.444;26.006;2023-04-01T02:32:38;99304.34;;;9.84;69.47
46291;BME280;32023;44.444;26.006;2023-04-01T02:35:11;99310.69;;;9.79;69.42
46291;BME280;32023;44.444;26.006;2023-04-01T02:37:39;99305.22;;;9.69;70.00
46291;BME280;32023;44.444;26.006;2023-04-01T02:40:15;99309.34;;;9.72;69.88
46291;BME280;32023;44.444;26.006;2023-04-01T02:42:42;99303.31;;;9.70;70.17
46291;BME280;32023;44.444;26.006;2023-04-01T02:45:09;99303.31;;;9.70;70.34
46291;BME280;32023;44.444;26.006;2023-04-01T02:47:44;99304.41;;;9.68;70.45
46291;BME280;32023;44.444;26.006;2023-04-01T02:50:12;99294.50;;;9.67;70.60
46291;BME280;32023;44.444;26.006;2023-04-01T02:52:57;99297.81;;;9.64;71.11
46291;BME280;32023;44.444;26.006;2023-04-01T02:55:24;99295.06;;;9.64;70.93
46291;BME280;32023;44.444;26.006;2023-04-01T02:57:50;99293.16;;;9.60;71.28
46291;BME280;32023;44.444;26.006;2023-04-01T03:00:17;99297.03;;;9.59;71.48
46291;BME280;32023;44.444;26.006;2023-04-01T03:02:43;99300.03;;;9.57;71.39
46291;BME280;32023;44.444;26.006;2023-04-01T03:05:13;99305.28;;;9.54;71.78
46291;BME280;32023;44.444;26.006;2023-04-01T03:07:52;99297.03;;;9.49;72.18
46291;BME280;32023;44.444;26.006;2023-04-01T03:10:18;99292.94;;;9.46;71.92
46291;BME280;32023;44.444;26.006;2023-04-01T03:12:44;99286.34;;;9.42;72.31
46291;BME280;32023;44.444;26.006;2023-04-01T03:15:13;99286.09;;;9.39;72.69
46291;BME280;32023;44.444;26.006;2023-04-01T03:17:41;99283.06;;;9.35;72.57
46291;BME280;32023;44.444;26.006;2023-04-01T03:20:08;99285.25;;;9.33;72.78
46291;BME280;32023;44.444;26.006;2023-04-01T03:22:47;99280.31;;;9.30;72.91
46291;BME280;32023;44.444;26.006;2023-04-01T03:25:19;99269.34;;;9.30;73.21
46291;BME280;32023;44.444;26.006;2023-04-01T03:27:46;99256.44;;;9.31;73.02
46291;BME280;32023;44.444;26.006;2023-04-01T03:30:12;99267.69;;;9.29;73.47
46291;BME280;32023;44.444;26.006;2023-04-01T03:32:53;99263.31;;;9.28;73.81
46291;BME280;32023;44.444;26.006;2023-04-01T03:35:19;99261.66;;;9.27;73.56
46291;BME280;32023;44.444;26.006;2023-04-01T03:37:46;99264.94;;;9.29;73.89
46291;BME280;32023;44.444;26.006;2023-04-01T03:40:12;99268.25;;;9.31;73.97
46291;BME280;32023;44.444;26.006;2023-04-01T03:42:39;99273.47;;;9.33;74.06
46291;BME280;32023;44.444;26.006;2023-04-01T03:45:09;99263.56;;;9.32;74.09
46291;BME280;32023;44.444;26.006;2023-04-01T03:47:36;99263.00;;;9.30;74.12
46291;BME280;32023;44.444;26.006;2023-04-01T03:50:02;99262.47;;;9.28;74.54
46291;BME280;32023;44.444;26.006;2023-04-01T03:52:33;99258.38;;;9.25;74.57
46291;BME280;32023;44.444;26.006;2023-04-01T03:55:02;99247.91;;;9.22;74.64
46291;BME280;32023;44.444;26.006;2023-04-01T03:57:30;99251.53;;;9.17;74.96
46291;BME280;32023;44.444;26.006;2023-04-01T03:59:56;99243.56;;;9.16;75.22
46291;BME280;32023;44.444;26.006;2023-04-01T04:02:23;99226.25;;;9.15;75.34
46291;BME280;32023;44.444;26.006;2023-04-01T04:04:49;99228.47;;;9.13;75.77
46291;BME280;32023;44.444;26.006;2023-04-01T04:07:15;99227.06;;;9.16;75.58
46291;BME280;32023;44.444;26.006;2023-04-01T04:09:47;99221.84;;;9.19;75.71
46291;BME280;32023;44.444;26.006;2023-04-01T04:12:14;99216.63;;;9.23;75.58
46291;BME280;32023;44.444;26.006;2023-04-01T04:14:41;99215.78;;;9.28;75.60
46291;BME280;32023;44.444;26.006;2023-04-01T04:17:13;99208.63;;;9.32;75.63
46291;BME280;32023;44.444;26.006;2023-04-01T04:19:42;99206.16;;;9.35;75.54
46291;BME280;32023;44.444;26.006;2023-04-01T04:22:09;99207.22;;;9.39;75.34
46291;BME280;32023;44.444;26.006;2023-04-01T04:24:53;99209.94;;;9.44;75.20
46291;BME280;32023;44.444;26.006;2023-04-01T04:27:27;99209.94;;;9.49;75.31
46291;BME280;32023;44.444;26.006;2023-04-01T04:29:53;99207.19;;;9.54;75.57
46291;BME280;32023;44.444;26.006;2023-04-01T04:32:20;99212.09;;;9.57;75.54
46291;BME280;32023;44.444;26.006;2023-04-01T04:34:46;99215.63;;;9.63;75.37
46291;BME280;32023;44.444;26.006;2023-04-01T04:37:12;99213.44;;;9.65;75.21
46291;BME280;32023;44.444;26.006;2023-04-01T04:39:39;99215.34;;;9.70;75.23
46291;BME280;32023;44.444;26.006;2023-04-01T04:42:10;99218.63;;;9.77;75.04
46291;BME280;32023;44.444;26.006;2023-04-01T04:44:38;99220.78;;;9.80;74.73
46291;BME280;32023;44.444;26.006;2023-04-01T04:47:17;99219.13;;;9.84;74.95
46291;BME280;32023;44.444;26.006;2023-04-01T04:49:46;99220.78;;;9.85;74.82
46291;BME280;32023;44.444;26.006;2023-04-01T04:52:12;99228.44;;;9.88;75.12
46291;BME280;32023;44.444;26.006;2023-04-01T04:54:39;99236.69;;;9.93;74.95
46291;BME280;32023;44.444;26.006;2023-04-01T04:57:16;99236.13;;;9.96;74.94
46291;BME280;32023;44.444;26.006;2023-04-01T04:59:43;99234.72;;;9.98;74.49
46291;BME280;32023;44.444;26.006;2023-04-01T05:02:09;99238.81;;;10.01;74.62
46291;BME280;32023;44.444;26.006;2023-04-01T05:04:36;99235.53;;;10.04;74.30
46291;BME280;32023;44.444;26.006;2023-04-01T05:07:05;99236.03;;;10.06;73.63
46291;BME280;32023;44.444;26.006;2023-04-01T05:09:31;99233.88;;;10.03;73.63
46291;BME280;32023;44.444;26.006;2023-04-01T05:11:58;99234.94;;;10.07;73.45
46291;BME280;32023;44.444;26.006;2023-04-01T05:14:24;99226.69;;;10.12;73.29
46291;BME280;32023;44.444;26.006;2023-04-01T05:16:57;99230.78;;;10.20;73.19
46291;BME280;32023;44.444;26.006;2023-04-01T05:19:23;99229.63;;;10.26;72.71
46291;BME280;32023;44.444;26.006;2023-04-01T05:21:53;99219.41;;;10.31;72.39
46291;BME280;32023;44.444;26.006;2023-04-01T05:24:20;99214.44;;;10.33;72.80
46291;BME280;32023;44.444;26.006;2023-04-01T05:26:46;99216.94;;;10.35;72.63
46291;BME280;32023;44.444;26.006;2023-04-01T05:29:12;99213.03;;;10.36;72.07
46291;BME280;32023;44.444;26.006;2023-04-01T05:31:39;99209.72;;;10.39;72.37
46291;BME280;32023;44.444;26.006;2023-04-01T05:34:05;99202.53;;;10.43;72.33
46291;BME280;32023;44.444;26.006;2023-04-01T05:36:42;99195.66;;;10.45;72.19
46291;BME280;32023;44.444;26.006;2023-04-01T05:39:09;99192.31;;;10.48;72.11
46291;BME280;32023;44.444;26.006;2023-04-01T05:41:36;99196.41;;;10.51;72.44
46291;BME280;32023;44.444;26.006;2023-04-01T05:44:14;99193.91;;;10.54;72.03
46291;BME280;32023;44.444;26.006;2023-04-01T05:46:53;99190.28;;;10.59;71.78
46291;BME280;32023;44.444;26.006;2023-04-01T05:49:20;99193.00;;;10.64;71.81
46291;BME280;32023;44.444;26.006;2023-04-01T05:51:47;99180.59;;;10.67;71.60
46291;BME280;32023;44.444;26.006;2023-04-01T05:54:13;99171.22;;;10.68;71.67
46291;BME280;32023;44.444;26.006;2023-04-01T05:56:39;99162.09;;;10.72;71.95
46291;BME280;32023;44.444;26.006;2023-04-01T05:59:06;99167.31;;;10.74;71.69
46291;BME280;32023;44.444;26.006;2023-04-01T06:01:32;99173.34;;;10.76;71.61
46291;BME280;32023;44.444;26.006;2023-04-01T06:03:58;99172.78;;;10.79;71.43
46291;BME280;32023;44.444;26.006;2023-04-01T06:06:29;99169.97;;;10.84;71.27
46291;BME280;32023;44.444;26.006;2023-04-01T06:09:06;99166.63;;;10.87;71.59
46291;BME280;32023;44.444;26.006;2023-04-01T06:14:41;99167.38;;;10.92;71.68
46291;BME280;32023;44.444;26.006;2023-04-01T06:36:39;99161.19;;;11.29;70.96
46291;BME280;32023;44.444;26.006;2023-04-01T06:42:41;99155.28;;;11.59;70.32
46291;BME280;32023;44.444;26.006;2023-04-01T06:54:30;99142.91;;;12.18;68.14
46291;BME280;32023;44.444;26.006;2023-04-01T06:57:49;99149.59;;;12.31;67.63
46291;BME280;32023;44.444;26.006;2023-04-01T06:59:51;99171.72;;;12.44;67.00
46291;BME280;32023;44.444;26.006;2023-04-01T07:02:38;99166.84;;;12.55;66.40
46291;BME280;32023;44.444;26.006;2023-04-01T07:05:05;99169.63;;;12.55;66.49
46291;BME280;32023;44.444;26.006;2023-04-01T07:07:50;99168.53;;;12.70;65.82
46291;BME280;32023;44.444;26.006;2023-04-01T07:14:36;99153.84;;;12.88;64.96
46291;BME280;32023;44.444;26.006;2023-04-01T07:17:02;99159.19;;;12.98;64.78
46291;BME280;32023;44.444;26.006;2023-04-01T07:19:53;99158.50;;;13.06;64.50
46291;BME280;32023;44.444;26.006;2023-04-01T07:22:32;99156.78;;;13.10;64.19
46291;BME280;32023;44.444;26.006;2023-04-01T07:25:05;99158.81;;;13.18;63.93
46291;BME280;32023;44.444;26.006;2023-04-01T07:27:32;99149.59;;;13.23;63.59
46291;BME280;32023;44.444;26.006;2023-04-01T07:29:58;99157.53;;;13.29;63.35
46291;BME280;32023;44.444;26.006;2023-04-01T07:35:42;99157.09;;;13.36;62.95
46291;BME280;32023;44.444;26.006;2023-04-01T07:49:43;99142.81;;;13.56;62.74
46291;BME280;32023;44.444;26.006;2023-04-01T08:00:33;99132.72;;;14.01;63.17
46291;BME280;32023;44.444;26.006;2023-04-01T08:17:50;99119.50;;;14.87;60.75
46291;BME280;32023;44.444;26.006;2023-04-01T08:20:38;99116.94;;;14.99;60.66
46291;BME280;32023;44.444;26.006;2023-04-01T08:23:13;99117.91;;;15.03;60.42
46291;BME280;32023;44.444;26.006;2023-04-01T08:32:28;99107.63;;;14.95;61.12
46291;BME280;32023;44.444;26.006;2023-04-01T08:35:09;99116.25;;;14.93;61.12
46291;BME280;32023;44.444;26.006;2023-04-01T08:37:44;99110.41;;;14.95;61.05
46291;BME280;32023;44.444;26.006;2023-04-01T08:59:08;99116.03;;;14.81;61.22
46291;BME280;32023;44.444;26.006;2023-04-01T09:05:05;99121.69;;;14.32;62.06
46291;BME280;32023;44.444;26.006;2023-04-01T09:11:04;99111.06;;;14.25;62.63
46291;BME280;32023;44.444;26.006;2023-04-01T09:31:26;99116.47;;;13.86;64.69
46291;BME280;32023;44.444;26.006;2023-04-01T09:36:47;99109.81;;;14.09;64.72
46291;BME280;32023;44.444;26.006;2023-04-01T09:45:25;99107.28;;;14.21;65.15
46291;BME280;32023;44.444;26.006;2023-04-01T09:48:21;99107.00;;;14.23;65.39
46291;BME280;32023;44.444;26.006;2023-04-01T09:54:13;99107.28;;;14.35;65.23
46291;BME280;32023;44.444;26.006;2023-04-01T09:57:10;99098.16;;;14.34;65.17
46291;BME280;32023;44.444;26.006;2023-04-01T10:31:19;99082.63;;;15.34;57.20
46291;BME280;32023;44.444;26.006;2023-04-01T10:45:17;99038.84;;;20.22;47.08
46291;BME280;32023;44.444;26.006;2023-04-01T10:54:45;99047.75;;;22.73;35.94
46291;BME280;32023;44.444;26.006;2023-04-01T11:26:32;99023.41;;;18.75;44.14
46291;BME280;32023;44.444;26.006;2023-04-01T11:40:41;98977.66;;;18.31;45.93
46291;BME280;32023;44.444;26.006;2023-04-01T11:46:48;98971.13;;;17.94;46.46
46291;BME280;32023;44.444;26.006;2023-04-01T11:52:47;98962.66;;;17.91;47.07
46291;BME280;32023;44.444;26.006;2023-04-01T11:55:28;98956.00;;;17.83;46.99
46291;BME280;32023;44.444;26.006;2023-04-01T11:58:17;98952.50;;;17.74;47.11
46291;BME280;32023;44.444;26.006;2023-04-01T12:13:02;98945.13;;;17.90;46.28
46291;BME280;32023;44.444;26.006;2023-04-01T12:15:55;98955.63;;;18.05;46.13
46291;BME280;32023;44.444;26.006;2023-04-01T12:31:18;98968.63;;;18.01;46.01
46291;BME280;32023;44.444;26.006;2023-04-01T12:34:10;98967.56;;;17.94;46.53
46291;BME280;32023;44.444;26.006;2023-04-01T12:40:06;98965.13;;;17.51;47.98
46291;BME280;32023;44.444;26.006;2023-04-01T12:46:01;98990.38;;;16.96;50.69
46291;BME280;32023;44.444;26.006;2023-04-01T12:48:55;98975.72;;;16.78;51.73
46291;BME280;32023;44.444;26.006;2023-04-01T13:06:17;98971.19;;;17.03;54.79
46291;BME280;32023;44.444;26.006;2023-04-01T13:20:54;98982.94;;;17.00;54.45
46291;BME280;32023;44.444;26.006;2023-04-01T13:28:59;98848.09;;;16.64;52.54
46291;BME280;32023;44.444;26.006;2023-04-01T13:34:38;98969.09;;;17.41;52.14
46291;BME280;32023;44.444;26.006;2023-04-01T13:40:26;98985.09;;;17.23;51.28
46291;BME280;32023;44.444;26.006;2023-04-01T13:45:32;98969.00;;;17.08;51.03
46291;BME280;32023;44.444;26.006;2023-04-01T13:48:56;98968.59;;;16.98;50.95
46291;BME280;32023;44.444;26.006;2023-04-01T14:00:32;98985.19;;;16.30;52.75
46291;BME280;32023;44.444;26.006;2023-04-01T14:06:55;98974.31;;;15.91;54.67
46291;BME280;32023;44.444;26.006;2023-04-01T14:09:08;98976.16;;;15.78;55.85
46291;BME280;32023;44.444;26.006;2023-04-01T14:32:17;98959.38;;;14.92;63.58
46291;BME280;32023;44.444;26.006;2023-04-01T14:49:23;98961.09;;;14.63;64.67
46291;BME280;32023;44.444;26.006;2023-04-01T14:51:56;98952.56;;;14.51;65.04
46291;BME280;32023;44.444;26.006;2023-04-01T14:54:44;98957.75;;;14.43;65.20
46291;BME280;32023;44.444;26.006;2023-04-01T14:57:15;98974.00;;;14.36;65.60
46291;BME280;32023;44.444;26.006;2023-04-01T15:08:29;98973.78;;;14.02;67.78
46291;BME280;32023;44.444;26.006;2023-04-01T15:16:56;98961.25;;;13.74;67.68
46291;BME280;32023;44.444;26.006;2023-04-01T15:25:42;98942.81;;;13.69;69.11
46291;BME280;32023;44.444;26.006;2023-04-01T15:42:32;98922.44;;;13.65;69.72
46291;BME280;32023;44.444;26.006;2023-04-01T15:48:20;98912.88;;;13.71;69.67
46291;BME280;32023;44.444;26.006;2023-04-01T15:56:42;98901.81;;;14.02;69.82
46291;BME280;32023;44.444;26.006;2023-04-01T15:59:41;98901.19;;;14.05;70.04
46291;BME280;32023;44.444;26.006;2023-04-01T16:06:01;98890.03;;;13.88;69.17
46291;BME280;32023;44.444;26.006;2023-04-01T16:15:37;98888.75;;;13.94;70.16
46291;BME280;32023;44.444;26.006;2023-04-01T16:23:37;98880.00;;;13.70;69.76
46291;BME280;32023;44.444;26.006;2023-04-01T16:26:26;98874.97;;;13.72;69.56
46291;BME280;32023;44.444;26.006;2023-04-01T16:32:07;98730.56;;;12.55;70.08
46291;BME280;32023;44.444;26.006;2023-04-01T16:38:15;98871.59;;;13.52;70.72
46291;BME280;32023;44.444;26.006;2023-04-01T16:41:14;98864.69;;;13.41;71.20
46291;BME280;32023;44.444;26.006;2023-04-01T16:43:48;98867.28;;;13.38;71.54
46291;BME280;32023;44.444;26.006;2023-04-01T16:46:37;98869.84;;;13.34;71.77
46291;BME280;32023;44.444;26.006;2023-04-01T16:55:21;98897.56;;;13.07;73.84
46291;BME280;32023;44.444;26.006;2023-04-01T16:57:57;98904.44;;;12.96;75.08
46291;BME280;32023;44.444;26.006;2023-04-01T17:00:48;98917.38;;;12.87;75.56
46291;BME280;32023;44.444;26.006;2023-04-01T17:03:46;98909.50;;;12.80;76.23
46291;BME280;32023;44.444;26.006;2023-04-01T17:06:40;98916.38;;;12.83;76.61
46291;BME280;32023;44.444;26.006;2023-04-01T17:15:02;98915.00;;;12.80;77.48
46291;BME280;32023;44.444;26.006;2023-04-01T17:20:50;98921.88;;;12.83;77.38
46291;BME280;32023;44.444;26.006;2023-04-01T17:23:32;98929.66;;;12.81;77.32
46291;BME280;32023;44.444;26.006;2023-04-01T17:28:50;98930.19;;;12.69;78.22
46291;BME280;32023;44.444;26.006;2023-04-01T17:31:45;98936.84;;;12.68;77.80
46291;BME280;32023;44.444;26.006;2023-04-01T17:37:25;98945.44;;;12.67;77.85
46291;BME280;32023;44.444;26.006;2023-04-01T17:46:24;98938.97;;;12.57;78.51
46291;BME280;32023;44.444;26.006;2023-04-01T18:03:21;98955.97;;;12.37;81.36
46291;BME280;32023;44.444;26.006;2023-04-01T18:11:45;98972.13;;;12.30;83.38
46291;BME280;32023;44.444;26.006;2023-04-01T18:23:34;98961.25;;;12.20;83.53
46291;BME280;32023;44.444;26.006;2023-04-01T18:26:23;98965.25;;;12.14;83.76
46291;BME280;32023;44.444;26.006;2023-04-01T18:29:27;98956.97;;;12.14;84.10
46291;BME280;32023;44.444;26.006;2023-04-01T18:41:18;98955.44;;;12.08;85.06
46291;BME280;32023;44.444;26.006;2023-04-01T18:47:38;98955.22;;;12.04;85.30
46291;BME280;32023;44.444;26.006;2023-04-01T18:53:34;98960.63;;;11.96;85.93
46291;BME280;32023;44.444;26.006;2023-04-01T18:56:16;98968.88;;;11.96;86.47
46291;BME280;32023;44.444;26.006;2023-04-01T18:59:14;98970.00;;;11.95;86.15
46291;BME280;32023;44.444;26.006;2023-04-01T19:07:43;98984.88;;;11.80;88.25
46291;BME280;32023;44.444;26.006;2023-04-01T19:21:16;99003.13;;;11.57;90.45
46291;BME280;32023;44.444;26.006;2023-04-01T19:26:46;99002.53;;;11.60;91.17
46291;BME280;32023;44.444;26.006;2023-04-01T19:34:47;99006.66;;;11.63;89.88
46291;BME280;32023;44.444;26.006;2023-04-01T19:40:24;99005.00;;;11.62;89.87
46291;BME280;32023;44.444;26.006;2023-04-01T19:43:12;99009.69;;;11.62;90.15
46291;BME280;32023;44.444;26.006;2023-04-01T19:52:45;99021.69;;;11.52;91.02
46291;BME280;32023;44.444;26.006;2023-04-01T19:55:34;99018.19;;;11.46;91.40
46291;BME280;32023;44.444;26.006;2023-04-01T20:04:56;99030.34;;;11.45;91.87
46291;BME280;32023;44.444;26.006;2023-04-01T20:07:55;99031.44;;;11.44;91.59
46291;BME280;32023;44.444;26.006;2023-04-01T20:11:16;99030.44;;;11.40;91.83
46291;BME280;32023;44.444;26.006;2023-04-01T20:20:20;99028.63;;;11.31;91.90
46291;BME280;32023;44.444;26.006;2023-04-01T20:25:54;99023.53;;;11.19;92.84
46291;BME280;32023;44.444;26.006;2023-04-01T20:28:47;99011.94;;;11.22;92.65
46291;BME280;32023;44.444;26.006;2023-04-01T20:31:36;99019.09;;;11.23;92.51
46291;BME280;32023;44.444;26.006;2023-04-01T20:45:42;98998.53;;;11.16;92.86
46291;BME280;32023;44.444;26.006;2023-04-01T20:48:51;99002.94;;;11.17;93.24
46291;BME280;32023;44.444;26.006;2023-04-01T20:51:39;99011.47;;;11.15;93.27
46291;BME280;32023;44.444;26.006;2023-04-01T21:17:08;99020.16;;;11.03;94.53
46291;BME280;32023;44.444;26.006;2023-04-01T21:20:27;99015.50;;;11.04;94.16
46291;BME280;32023;44.444;26.006;2023-04-01T21:31:53;99009.53;;;10.97;94.64
46291;BME280;32023;44.444;26.006;2023-04-01T22:03:58;98978.28;;;11.06;93.68
46291;BME280;32023;44.444;26.006;2023-04-01T22:06:55;98986.84;;;11.05;93.68
46291;BME280;32023;44.444;26.006;2023-04-01T22:09:39;98986.22;;;11.08;93.36
46291;BME280;32023;44.444;26.006;2023-04-01T22:12:34;98984.09;;;11.05;93.75
46291;BME280;32023;44.444;26.006;2023-04-01T22:26:15;98975.88;;;11.00;95.38
46291;BME280;32023;44.444;26.006;2023-04-01T22:31:23;98972.59;;;10.98;95.62
46291;BME280;32023;44.444;26.006;2023-04-01T22:37:23;98978.13;;;10.98;95.89
46291;BME280;32023;44.444;26.006;2023-04-01T22:42:56;98979.16;;;11.02;95.70
46291;BME280;32023;44.444;26.006;2023-04-01T22:45:58;98973.22;;;10.95;95.13
46291;BME280;32023;44.444;26.006;2023-04-01T22:48:45;98978.19;;;10.93;95.94
46291;BME280;32023;44.444;26.006;2023-04-01T22:56:39;98978.13;;;10.98;95.43
46291;BME280;32023;44.444;26.006;2023-04-01T23:02:03;98979.75;;;10.99;95.46
46291;BME280;32023;44.444;26.006;2023-04-01T23:04:38;98978.72;;;10.95;95.59
46291;BME280;32023;44.444;26.006;2023-04-01T23:10:00;98991.22;;;10.87;96.29
46291;BME280;32023;44.444;26.006;2023-04-01T23:12:40;98995.13;;;10.81;96.74
46291;BME280;32023;44.444;26.006;2023-04-01T23:15:13;98983.06;;;10.77;96.78
46291;BME280;32023;44.444;26.006;2023-04-01T23:28:56;98986.47;;;10.22;97.24
46291;BME280;32023;44.444;26.006;2023-04-01T23:31:42;98979.63;;;10.14;97.77
46291;BME280;32023;44.444;26.006;2023-04-01T23:39:57;98993.34;;;9.90;98.04
46291;BME280;32023;44.444;26.006;2023-04-01T23:42:29;98989.75;;;9.90;98.42
46291;BME280;32023;44.444;26.006;2023-04-01T23:45:27;98987.06;;;9.85;98.30
46291;BME280;32023;44.444;26.006;2023-04-01T23:47:54;98994.53;;;9.79;98.31
46291;BME280;32023;44.444;26.006;2023-04-01T23:50:39;98982.22;;;9.72;98.44
46291;BME280;32023;44.444;26.006;2023-04-01T23:53:35;98982.53;;;9.70;99.14
46291;BME280;32023;44.444;26.006;2023-04-01T23:56:08;98993.28;;;9.66;99.19
